Time;durP1;ratioP1;P1;durP2;ratioP2;P2;SDS_P1;SDS_P2;PMS_P1;PMS_P2;Temp;Humidity;BMP_temperature;BMP_pressure;BME280_temperature;BME280_humidity;BME280_pressure;Samples;Min_cycle;Max_cycle;Signal;HPM_P1;HPM_P2
2024/04/12 04:07:39;;;;;;;0.40;0.40;;;6.40;99.90;;;;;;5446286;21;20880;-61
2024/04/12 04:10:10;;;;;;;0.47;0.47;;;6.40;99.90;;;;;;5311999;27;20248;-61
2024/04/12 04:12:44;;;;;;;0.30;0.30;;;6.30;99.90;;;;;;5312542;26;20233;-61
2024/04/12 04:15:13;;;;;;;0.40;0.40;;;6.30;99.90;;;;;;5312205;26;20244;-61
2024/04/12 04:17:38;;;;;;;0.30;0.30;;;6.30;99.90;;;;;;5313707;26;20330;-61
2024/04/12 04:20:10;;;;;;;0.30;0.30;;;6.30;99.90;;;;;;5313633;26;20591;-61
2024/04/12 04:25:07;;;;;;;0.50;0.50;;;6.30;99.90;;;;;;5314034;26;20253;-61
2024/04/12 04:27:33;;;;;;;0.30;0.30;;;6.20;99.90;;;;;;5314210;26;20279;-62
2024/04/12 04:30:00;;;;;;;0.30;0.30;;;6.30;99.90;;;;;;5313990;26;20230;-62
2024/04/12 04:32:26;;;;;;;0.40;0.40;;;6.30;99.90;;;;;;5314104;26;20519;-62
2024/04/12 04:35:04;;;;;;;0.40;0.40;;;6.20;99.90;;;;;;5313350;26;20258;-64
2024/04/12 04:37:34;;;;;;;0.40;0.40;;;6.20;99.90;;;;;;5313043;26;20230;-61
2024/04/12 04:40:16;;;;;;;0.40;0.40;;;6.20;99.90;;;;;;5314108;26;20328;-62
2024/04/12 04:42:45;;;;;;;0.30;0.30;;;6.20;99.90;;;;;;5313859;26;20329;-61
2024/04/12 04:45:17;;;;;;;0.40;0.40;;;6.20;99.90;;;;;;5313521;26;20224;-62
2024/04/12 04:47:44;;;;;;;0.40;0.40;;;6.20;99.90;;;;;;5313918;26;20369;-61
2024/04/12 04:50:12;;;;;;;0.40;0.40;;;6.20;99.90;;;;;;5313814;26;20283;-62
2024/04/12 04:52:38;;;;;;;0.52;0.52;;;6.30;99.90;;;;;;5314175;26;20222;-62
2024/04/12 04:55:07;;;;;;;0.30;0.30;;;6.30;99.90;;;;;;5311917;26;20252;-62
2024/04/12 04:57:35;;;;;;;0.40;0.40;;;6.40;99.90;;;;;;5311891;26;20520;-62
2024/04/12 05:00:08;;;;;;;0.40;0.40;;;6.40;99.90;;;;;;5313973;26;20224;-62
2024/04/12 05:02:34;;;;;;;0.40;0.40;;;6.60;99.90;;;;;;5279447;27;20252;-62
2024/04/12 05:05:06;;;;;;;0.40;0.40;;;6.80;99.90;;;;;;5293977;27;20687;-61
2024/04/12 05:07:35;;;;;;;0.30;0.30;;;6.90;99.90;;;;;;5313840;27;20342;-62
2024/04/12 05:10:08;;;;;;;0.40;0.40;;;7.10;99.90;;;;;;5313789;26;20226;-61
2024/04/12 05:12:38;;;;;;;0.38;0.38;;;7.40;99.90;;;;;;5313632;26;20247;-62
2024/04/12 05:15:48;;;;;;;0.40;0.40;;;7.80;99.90;;;;;;5312829;27;20214;-61
2024/04/12 05:17:55;;;;;;;0.40;0.40;;;8.00;99.90;;;;;;5313378;26;20700;-61
2024/04/12 05:20:38;;;;;;;0.30;0.30;;;8.20;99.90;;;;;;5311611;27;20218;-63
2024/04/12 05:23:08;;;;;;;0.30;0.30;;;8.30;99.90;;;;;;5313434;27;20222;-61
2024/04/12 05:25:36;;;;;;;0.30;0.30;;;8.50;99.90;;;;;;5313671;26;20292;-61
2024/04/12 05:28:06;;;;;;;0.50;0.50;;;8.50;99.90;;;;;;5313319;26;20230;-61
2024/04/12 05:30:42;;;;;;;0.40;0.40;;;8.50;99.90;;;;;;5313104;27;20214;-62
2024/04/12 05:33:11;;;;;;;0.40;0.40;;;8.50;99.90;;;;;;5313410;26;20217;-63
2024/04/12 05:35:37;;;;;;;0.40;0.40;;;8.50;99.90;;;;;;5310949;26;20241;-62
2024/04/12 05:38:09;;;;;;;0.30;0.30;;;8.40;99.90;;;;;;5313560;26;20257;-62
2024/04/12 05:40:45;;;;;;;0.47;0.47;;;8.40;99.90;;;;;;5313311;26;20436;-62
2024/04/12 05:43:14;;;;;;;0.40;0.40;;;8.30;99.90;;;;;;5313018;27;20217;-62
2024/04/12 05:45:40;;;;;;;0.40;0.40;;;8.30;99.90;;;;;;5312811;26;20217;-64
2024/04/12 05:48:13;;;;;;;0.30;0.30;;;8.50;99.90;;;;;;5312923;27;20233;-62
2024/04/12 05:50:42;;;;;;;0.30;0.30;;;8.60;99.90;;;;;;5311480;26;20229;-63
2024/04/12 05:53:12;;;;;;;0.30;0.30;;;8.70;99.90;;;;;;5344468;26;20279;-67
2024/04/12 05:55:44;;;;;;;0.40;0.40;;;8.90;99.90;;;;;;5329776;26;20591;-63
2024/04/12 05:58:17;;;;;;;0.40;0.40;;;9.30;99.90;;;;;;5296216;26;20290;-61
2024/04/12 06:00:47;;;;;;;0.40;0.40;;;9.80;99.90;;;;;;5312279;26;20276;-66
2024/04/12 06:03:14;;;;;;;0.30;0.30;;;10.10;99.90;;;;;;5310816;26;20449;-62
2024/04/12 06:06:00;;;;;;;0.90;0.90;;;10.20;99.90;;;;;;5330002;26;20533;-64
2024/04/12 06:08:25;;;;;;;1.30;0.93;;;10.40;99.90;;;;;;5346784;26;20464;-63
2024/04/12 06:10:51;;;;;;;0.30;0.30;;;10.50;99.90;;;;;;5312449;26;20503;-66
2024/04/12 06:13:20;;;;;;;0.30;0.30;;;10.60;99.90;;;;;;5312264;26;20450;-62
2024/04/12 06:15:46;;;;;;;0.30;0.30;;;10.70;99.90;;;;;;5312000;26;20580;-63
2024/04/12 06:18:12;;;;;;;0.40;0.40;;;10.90;99.90;;;;;;5330226;26;20526;-61
2024/04/12 06:20:38;;;;;;;0.40;0.40;;;11.00;99.90;;;;;;5314291;26;20471;-65
2024/04/12 06:23:09;;;;;;;0.50;0.40;;;11.10;99.90;;;;;;5318079;26;20539;-63
2024/04/12 06:25:43;;;;;;;0.33;0.33;;;11.30;99.90;;;;;;5293517;26;20472;-62
2024/04/12 06:28:11;;;;;;;0.50;0.50;;;11.50;99.90;;;;;;5310623;26;20552;-63
2024/04/12 06:30:46;;;;;;;1.07;0.63;;;11.90;99.90;;;;;;5304515;27;20441;-63
2024/04/12 06:33:19;;;;;;;0.30;0.30;;;12.30;99.90;;;;;;5312127;26;20441;-60
2024/04/12 06:35:45;;;;;;;0.30;0.30;;;12.70;99.90;;;;;;5312274;26;20504;-64
2024/04/12 06:38:12;;;;;;;0.30;0.30;;;13.10;99.90;;;;;;5310597;27;20592;-59
2024/04/12 06:40:37;;;;;;;0.30;0.30;;;13.40;99.90;;;;;;5310331;27;20479;-64
2024/04/12 06:43:06;;;;;;;0.30;0.30;;;13.70;99.90;;;;;;5310476;26;20439;-62
2024/04/12 06:45:41;;;;;;;0.30;0.30;;;14.00;99.40;;;;;;5309828;27;20651;-63
2024/04/12 06:48:16;;;;;;;0.30;0.30;;;14.20;99.00;;;;;;5310536;27;20906;-63
2024/04/12 06:51:05;;;;;;;0.30;0.30;;;14.20;98.20;;;;;;5311118;26;20901;-64
2024/04/12 06:53:34;;;;;;;0.30;0.30;;;14.20;97.70;;;;;;5312365;27;20448;-60
2024/04/12 06:56:06;;;;;;;0.30;0.30;;;14.10;98.10;;;;;;5311399;26;20476;-62
2024/04/12 06:58:32;;;;;;;0.30;0.30;;;14.30;98.10;;;;;;5311566;26;20826;-61
2024/04/12 07:00:58;;;;;;;0.40;0.40;;;14.60;98.00;;;;;;5311905;26;20503;-63
2024/04/12 07:03:24;;;;;;;0.40;0.40;;;15.00;97.80;;;;;;5312153;26;20425;-61
2024/04/12 07:05:53;;;;;;;0.30;0.30;;;15.30;96.70;;;;;;5311923;26;20292;-62
2024/04/12 07:08:21;;;;;;;0.30;0.30;;;15.70;96.50;;;;;;5311844;26;20472;-61
2024/04/12 07:10:50;;;;;;;0.30;0.30;;;16.20;95.70;;;;;;5311626;26;20513;-64
2024/04/12 07:13:16;;;;;;;0.30;0.30;;;16.80;94.40;;;;;;5311944;26;20429;-61
2024/04/12 07:15:45;;;;;;;0.47;0.40;;;17.30;93.20;;;;;;5309837;27;20950;-66
2024/04/12 07:18:11;;;;;;;0.40;0.40;;;17.70;92.70;;;;;;5310522;27;20461;-63
2024/04/12 07:20:40;;;;;;;0.30;0.30;;;18.10;91.80;;;;;;5310445;27;20962;-63
2024/04/12 07:23:10;;;;;;;1.13;0.83;;;18.50;91.10;;;;;;5310534;26;20456;-62
2024/04/12 07:25:39;;;;;;;0.30;0.30;;;18.70;90.70;;;;;;5310119;27;20954;-65
2024/04/12 07:28:06;;;;;;;0.30;0.30;;;18.90;90.70;;;;;;5310450;26;20472;-60
2024/04/12 07:30:32;;;;;;;0.93;0.53;;;19.10;90.20;;;;;;5311401;26;20546;-63
2024/04/12 07:32:59;;;;;;;0.30;0.20;;;19.40;89.20;;;;;;5311523;26;20488;-60
2024/04/12 07:35:26;;;;;;;0.30;0.30;;;19.80;87.90;;;;;;5310983;27;21111;-65
2024/04/12 07:37:59;;;;;;;0.50;0.50;;;20.10;87.80;;;;;;5311503;26;20596;-61
2024/04/12 07:40:30;;;;;;;0.30;0.30;;;20.20;87.60;;;;;;5315006;26;20444;-64
2024/04/12 07:42:57;;;;;;;0.30;0.20;;;20.30;86.50;;;;;;5314680;26;20640;-64
2024/04/12 07:45:25;;;;;;;0.30;0.30;;;20.40;86.60;;;;;;5314143;26;20446;-64
2024/04/12 07:48:28;;;;;;;0.50;0.50;;;20.60;86.20;;;;;;5314345;27;20551;-66
2024/04/12 07:50:47;;;;;;;0.30;0.30;;;20.90;84.80;;;;;;5317582;26;20916;-66
2024/04/12 07:53:23;;;;;;;0.30;0.30;;;21.40;84.20;;;;;;5314332;26;20493;-62
2024/04/12 07:55:55;;;;;;;0.30;0.30;;;21.90;82.50;;;;;;5314411;26;20855;-62
2024/04/12 07:58:26;;;;;;;0.50;0.50;;;22.80;80.20;;;;;;5314373;26;20867;-61
2024/04/12 08:00:54;;;;;;;0.57;0.43;;;23.60;77.80;;;;;;5314376;26;20560;-63
2024/04/12 08:03:20;;;;;;;0.47;0.47;;;24.40;75.10;;;;;;5314420;26;20489;-61
2024/04/12 08:06:03;;;;;;;0.47;0.40;;;25.10;72.10;;;;;;5314009;27;20755;-65
2024/04/12 08:08:29;;;;;;;0.50;0.50;;;25.70;71.80;;;;;;5314286;26;20234;-64
2024/04/12 08:11:10;;;;;;;0.60;0.60;;;26.40;66.50;;;;;;5314423;26;20461;-64
2024/04/12 08:13:43;;;;;;;0.33;0.33;;;26.90;66.20;;;;;;5314424;27;20567;-62
2024/04/12 08:16:14;;;;;;;0.43;0.43;;;27.60;62.40;;;;;;5314171;26;20521;-60
2024/04/12 08:18:43;;;;;;;0.40;0.40;;;28.20;63.80;;;;;;5314322;26;20560;-63
2024/04/12 08:21:12;;;;;;;0.67;0.67;;;28.80;60.30;;;;;;5314000;26;20448;-57
2024/04/12 08:23:44;;;;;;;0.63;0.40;;;29.30;59.20;;;;;;5314052;26;20431;-62
2024/04/12 08:26:16;;;;;;;0.60;0.60;;;29.60;58.90;;;;;;5314145;26;20425;-57
2024/04/12 08:28:43;;;;;;;0.37;0.37;;;29.70;58.80;;;;;;5314207;26;20457;-61
2024/04/12 08:31:10;;;;;;;0.70;0.70;;;29.50;58.90;;;;;;5314158;26;20579;-61
2024/04/12 08:33:40;;;;;;;0.40;0.40;;;29.70;58.60;;;;;;5313949;26;20459;-63
2024/04/12 08:36:16;;;;;;;0.60;0.50;;;29.80;57.60;;;;;;5313646;26;20480;-58
2024/04/12 08:38:54;;;;;;;0.40;0.40;;;29.70;57.50;;;;;;5313751;26;20871;-63
2024/04/12 08:41:24;;;;;;;0.30;0.30;;;29.70;57.50;;;;;;5314116;26;20473;-63
2024/04/12 08:43:54;;;;;;;0.40;0.40;;;29.50;57.20;;;;;;5314020;26;20445;-61
2024/04/12 08:46:25;;;;;;;0.50;0.50;;;29.60;57.50;;;;;;5313822;26;20601;-61
2024/04/12 08:48:51;;;;;;;0.50;0.50;;;30.10;57.40;;;;;;5314085;26;20452;-65
2024/04/12 08:51:22;;;;;;;0.50;0.50;;;30.50;57.00;;;;;;5312741;26;20453;-59
2024/04/12 08:53:55;;;;;;;0.80;0.80;;;31.00;55.20;;;;;;5313952;26;20440;-64
2024/04/12 08:56:28;;;;;;;0.87;0.87;;;31.40;56.00;;;;;;5313381;26;21001;-59
2024/04/12 08:59:05;;;;;;;0.67;0.67;;;31.50;55.10;;;;;;5313735;26;20513;-66
2024/04/12 09:01:31;;;;;;;0.80;0.80;;;31.30;55.00;;;;;;5313815;26;20437;-64
2024/04/12 09:04:12;;;;;;;0.70;0.70;;;31.20;55.20;;;;;;5313821;26;20558;-60
2024/04/12 09:06:38;;;;;;;0.50;0.50;;;31.40;54.00;;;;;;5313276;27;20580;-63
2024/04/12 09:09:04;;;;;;;0.63;0.63;;;31.90;53.80;;;;;;5313579;27;20959;-62
2024/04/12 09:11:31;;;;;;;0.93;0.83;;;32.20;54.40;;;;;;5313471;26;20323;-63
2024/04/12 09:14:08;;;;;;;0.60;0.60;;;32.50;52.90;;;;;;5311803;26;20229;-65
2024/04/12 09:16:43;;;;;;;0.97;0.93;;;32.20;53.00;;;;;;5311431;26;20503;-61
2024/04/12 09:19:15;;;;;;;0.50;0.50;;;32.20;53.80;;;;;;5313421;26;20881;-63
2024/04/12 09:21:47;;;;;;;1.47;1.37;;;32.00;53.00;;;;;;5313434;26;20504;-61
2024/04/12 09:24:21;;;;;;;0.60;0.60;;;31.70;53.00;;;;;;5313903;27;20865;-63
2024/04/12 09:26:58;;;;;;;0.43;0.43;;;31.60;53.70;;;;;;5312914;26;20524;-63
2024/04/12 09:29:28;;;;;;;0.60;0.60;;;31.60;54.20;;;;;;5313506;26;20551;-60
2024/04/12 09:34:46;;;;;;;1.13;0.70;;;31.40;53.10;;;;;;5313672;27;20501;-61
2024/04/12 09:37:38;;;;;;;0.80;0.80;;;31.70;54.10;;;;;;5313000;26;20508;-61
2024/04/12 09:45:28;;;;;;;0.60;0.60;;;32.10;51.60;;;;;;5313591;26;20441;-61
2024/04/12 10:38:01;;;;;;;0.30;0.30;;;30.50;53.10;;;;;;5312303;27;20911;-59
2024/04/12 10:40:33;;;;;;;0.73;0.73;;;30.30;53.80;;;;;;5312341;26;20495;-66
2024/04/12 10:42:59;;;;;;;0.80;0.80;;;30.50;53.20;;;;;;5310669;27;20217;-61
2024/04/12 10:45:29;;;;;;;0.70;0.40;;;30.50;53.20;;;;;;5311798;26;20453;-65
2024/04/12 10:47:56;;;;;;;1.50;0.80;;;30.70;54.10;;;;;;5312218;26;20460;-63
2024/04/12 10:50:23;;;;;;;0.60;0.60;;;30.70;52.10;;;;;;5311995;26;20445;-63
2024/04/12 10:52:55;;;;;;;0.40;0.40;;;30.50;51.70;;;;;;5311727;27;20496;-61
2024/04/12 10:55:20;;;;;;;0.60;0.60;;;29.80;53.30;;;;;;5311539;26;20509;-61
2024/04/12 10:57:47;;;;;;;0.57;0.57;;;29.20;53.60;;;;;;5311844;27;20476;-63
2024/04/12 11:00:14;;;;;;;2.50;0.50;;;29.00;53.80;;;;;;5311816;26;20289;-67
2024/04/12 11:02:54;;;;;;;1.60;0.60;;;29.00;55.10;;;;;;5311741;26;20515;-63
2024/04/12 11:07:53;;;;;;;0.70;0.70;;;29.20;56.10;;;;;;5311781;26;20979;-58
2024/04/12 11:10:37;;;;;;;0.60;0.60;;;28.90;54.60;;;;;;5311753;26;20457;-61
2024/04/12 11:13:06;;;;;;;0.67;0.67;;;27.90;54.60;;;;;;5312507;26;20555;-63
2024/04/12 11:32:14;;;;;;;0.33;0.33;;;24.70;61.90;;;;;;5315331;27;20485;-63
2024/04/12 11:34:41;;;;;;;0.40;0.40;;;24.20;62.20;;;;;;5312747;27;20432;-62
2024/04/12 11:37:09;;;;;;;0.60;0.60;;;23.90;60.90;;;;;;5314956;26;20583;-62
2024/04/12 11:39:36;;;;;;;0.30;0.20;;;23.60;65.00;;;;;;5314935;26;20492;-62
2024/04/12 11:42:03;;;;;;;0.30;0.30;;;23.50;65.10;;;;;;5314422;26;20534;-60
2024/04/12 11:44:29;;;;;;;0.30;0.30;;;23.50;65.80;;;;;;5314648;26;20557;-65
2024/04/12 11:46:56;;;;;;;0.63;0.30;;;23.50;66.80;;;;;;5314708;26;20445;-62
2024/04/12 11:49:25;;;;;;;0.30;0.30;;;23.40;66.50;;;;;;5314506;26;20486;-60
2024/04/12 11:52:02;;;;;;;0.30;0.30;;;23.40;67.30;;;;;;5314452;26;20441;-64
2024/04/12 11:54:29;;;;;;;0.30;0.30;;;23.50;66.90;;;;;;5312509;27;20428;-62
2024/04/12 11:56:59;;;;;;;0.40;0.40;;;23.70;65.70;;;;;;5314604;27;20496;-64
2024/04/12 11:59:29;;;;;;;0.40;0.40;;;23.60;63.10;;;;;;5311319;26;20420;-59
2024/04/12 12:01:58;;;;;;;0.30;0.30;;;23.60;65.90;;;;;;5311055;27;20448;-64
2024/04/12 12:04:25;;;;;;;1.13;1.13;;;23.50;66.10;;;;;;5311272;26;20549;-60
2024/04/12 12:06:51;;;;;;;0.37;0.37;;;23.50;66.30;;;;;;5311199;26;20453;-67
2024/04/12 12:09:20;;;;;;;0.40;0.30;;;23.50;65.60;;;;;;5311236;26;20483;-60
2024/04/12 12:11:49;;;;;;;0.50;0.50;;;23.60;65.80;;;;;;5311630;26;20495;-60
2024/04/12 12:14:16;;;;;;;0.50;0.50;;;23.50;64.00;;;;;;5312567;26;21054;-61
2024/04/12 12:16:41;;;;;;;0.30;0.30;;;23.30;65.00;;;;;;5313909;26;20468;-58
2024/04/12 12:19:07;;;;;;;0.80;0.80;;;23.20;65.20;;;;;;5314216;26;20470;-65
2024/04/12 12:21:33;;;;;;;1.73;0.93;;;23.10;66.10;;;;;;5314172;27;20591;-64
2024/04/12 12:23:59;;;;;;;0.80;0.63;;;23.10;65.80;;;;;;5313871;26;20218;-64
2024/04/12 12:26:25;;;;;;;0.60;0.60;;;23.10;69.10;;;;;;5312665;26;20425;-62
2024/04/12 12:28:51;;;;;;;0.30;0.30;;;23.10;68.50;;;;;;5314182;26;20556;-66
2024/04/12 12:31:18;;;;;;;0.50;0.50;;;23.00;67.40;;;;;;5314054;26;20481;-63
2024/04/12 12:33:49;;;;;;;0.47;0.47;;;23.00;67.10;;;;;;5314112;26;20587;-64
2024/04/12 12:36:16;;;;;;;0.30;0.30;;;22.90;65.00;;;;;;5313582;27;20499;-64
2024/04/12 12:38:43;;;;;;;0.73;0.57;;;22.80;65.70;;;;;;5314134;26;20468;-62
2024/04/12 12:41:09;;;;;;;0.57;0.50;;;22.70;67.70;;;;;;5314279;26;20425;-64
2024/04/12 12:43:34;;;;;;;0.30;0.30;;;22.60;66.70;;;;;;5314647;26;20501;-67
2024/04/12 12:46:00;;;;;;;0.40;0.40;;;22.60;67.80;;;;;;5314768;26;20428;-64
2024/04/12 12:48:29;;;;;;;0.30;0.30;;;22.60;69.10;;;;;;5313745;26;20229;-63
2024/04/12 12:50:55;;;;;;;0.40;0.40;;;22.60;70.80;;;;;;5313552;27;20560;-63
2024/04/12 12:53:22;;;;;;;1.13;1.13;;;22.60;70.40;;;;;;5313556;26;20464;-61
2024/04/12 12:55:51;;;;;;;0.50;0.50;;;22.60;70.00;;;;;;5312790;26;20698;-65
2024/04/12 12:58:24;;;;;;;0.40;0.40;;;22.60;68.00;;;;;;5313337;27;20759;-67
2024/04/12 13:00:50;;;;;;;0.30;0.30;;;22.40;68.30;;;;;;5314457;26;20811;-67
2024/04/12 13:03:25;;;;;;;0.30;0.20;;;22.30;72.30;;;;;;5311184;27;20453;-61
2024/04/12 13:05:52;;;;;;;0.30;0.30;;;22.30;71.70;;;;;;5311683;26;20443;-61
2024/04/12 13:08:20;;;;;;;0.40;0.40;;;22.30;70.60;;;;;;5313089;26;20448;-67
2024/04/12 13:10:48;;;;;;;0.30;0.30;;;22.20;71.90;;;;;;5312103;27;20440;-65
2024/04/12 13:13:23;;;;;;;0.30;0.30;;;22.30;70.70;;;;;;5313719;27;20511;-66
2024/04/12 13:15:55;;;;;;;0.40;0.40;;;22.30;72.30;;;;;;5313271;27;20458;-63
2024/04/12 13:18:28;;;;;;;0.40;0.40;;;22.40;70.60;;;;;;5313529;27;20533;-63
2024/04/12 13:20:55;;;;;;;0.40;0.40;;;22.10;67.50;;;;;;5314435;26;20610;-63
2024/04/12 13:23:26;;;;;;;0.50;0.40;;;22.00;68.30;;;;;;5313427;27;20507;-65
2024/04/12 13:25:55;;;;;;;0.80;0.80;;;22.00;71.10;;;;;;5313481;27;20480;-63
2024/04/12 13:28:21;;;;;;;0.33;0.33;;;22.00;72.20;;;;;;5313352;27;20439;-62
2024/04/12 13:30:47;;;;;;;0.30;0.30;;;22.00;69.00;;;;;;5313408;26;20430;-60
2024/04/12 13:33:14;;;;;;;0.30;0.27;;;22.00;68.70;;;;;;5326547;26;20441;-61
2024/04/12 13:35:41;;;;;;;0.70;0.50;;;22.10;68.70;;;;;;5344195;26;20259;-64
2024/04/12 13:38:14;;;;;;;0.70;0.70;;;22.10;69.70;;;;;;5345845;26;20541;-60
2024/04/12 13:40:45;;;;;;;1.03;0.93;;;22.20;70.10;;;;;;5346073;26;20469;-66
2024/04/12 13:43:14;;;;;;;0.50;0.50;;;22.20;70.70;;;;;;5346203;26;20790;-65
2024/04/12 13:51:15;;;;;;;0.30;0.20;;;22.10;71.20;;;;;;5347660;26;20494;-60
2024/04/12 13:53:43;;;;;;;0.30;0.30;;;22.10;69.00;;;;;;5347393;26;20484;-61
2024/04/12 13:58:56;;;;;;;0.30;0.30;;;22.00;67.40;;;;;;5344656;26;20928;-66
2024/04/12 14:01:26;;;;;;;0.30;0.30;;;22.00;67.00;;;;;;5342363;26;20443;-60
2024/04/12 14:03:52;;;;;;;0.33;0.33;;;22.10;68.30;;;;;;5344069;26;20445;-67
2024/04/12 14:06:23;;;;;;;0.30;0.30;;;22.10;69.80;;;;;;5343793;26;20423;-60
2024/04/12 14:08:49;;;;;;;0.87;0.87;;;22.10;71.30;;;;;;5342200;26;20803;-66
2024/04/12 14:11:14;;;;;;;0.40;0.40;;;22.20;70.40;;;;;;5343717;26;20506;-59
2024/04/12 14:13:42;;;;;;;1.13;1.13;;;22.20;67.70;;;;;;5346051;26;20428;-64
2024/04/12 14:16:07;;;;;;;0.67;0.67;;;22.20;66.70;;;;;;5346896;26;20213;-63
2024/04/12 14:18:33;;;;;;;0.30;0.30;;;22.20;68.70;;;;;;5347316;26;20547;-65
2024/04/12 14:20:58;;;;;;;0.30;0.30;;;22.20;68.30;;;;;;5347117;26;20220;-60
2024/04/12 14:23:24;;;;;;;0.30;0.30;;;22.10;68.60;;;;;;5347182;26;20222;-66
2024/04/12 14:25:50;;;;;;;0.40;0.40;;;22.00;67.10;;;;;;5346703;26;20225;-60
2024/04/12 14:28:16;;;;;;;0.30;0.30;;;22.00;67.50;;;;;;5347070;26;20244;-64
2024/04/12 14:30:42;;;;;;;0.40;0.30;;;21.90;69.30;;;;;;5347308;26;20443;-66
2024/04/12 14:33:07;;;;;;;0.30;0.30;;;21.90;67.60;;;;;;5347199;26;20340;-66
2024/04/12 14:35:38;;;;;;;0.30;0.30;;;21.90;68.00;;;;;;5347430;26;20783;-66
2024/04/12 14:38:05;;;;;;;0.30;0.30;;;21.90;69.30;;;;;;5347321;26;20299;-67
2024/04/12 14:40:34;;;;;;;0.47;0.47;;;21.90;70.30;;;;;;5347920;26;20527;-64
2024/04/12 14:43:05;;;;;;;0.30;0.30;;;21.90;68.60;;;;;;5348125;26;20505;-62
2024/04/12 14:45:33;;;;;;;0.30;0.30;;;21.90;66.90;;;;;;5347585;26;20441;-61
2024/04/12 14:47:59;;;;;;;0.30;0.30;;;21.90;67.50;;;;;;5345466;26;20874;-64
2024/04/12 14:50:25;;;;;;;0.30;0.30;;;21.90;68.70;;;;;;5346842;26;20450;-67
2024/04/12 14:52:51;;;;;;;0.50;0.50;;;21.80;69.30;;;;;;5347156;26;20454;-61
2024/04/12 14:55:18;;;;;;;0.30;0.30;;;21.80;68.10;;;;;;5346510;26;20425;-65
2024/04/12 14:57:52;;;;;;;0.33;0.33;;;21.70;67.90;;;;;;5346530;26;20589;-60
2024/04/12 15:00:20;;;;;;;0.40;0.40;;;21.80;67.60;;;;;;5346693;26;20499;-65
2024/04/12 15:49:17;;;;;;;0.30;0.30;;;20.90;69.30;;;;;;5347121;26;20499;-66
2024/04/12 15:51:43;;;;;;;0.30;0.30;;;20.90;69.20;;;;;;5345932;26;20455;-62
2024/04/12 15:54:08;;;;;;;0.30;0.30;;;20.90;68.90;;;;;;5345704;26;20553;-63
2024/04/12 16:12:40;;;;;;;0.40;0.40;;;20.80;69.50;;;;;;5349757;26;20497;-65
2024/04/12 16:15:06;;;;;;;0.30;0.20;;;20.80;69.00;;;;;;5348744;26;20455;-63
2024/04/12 16:17:32;;;;;;;0.30;0.20;;;20.70;69.10;;;;;;5348825;26;20267;-60
2024/04/12 16:19:57;;;;;;;0.50;0.50;;;20.70;70.00;;;;;;5349150;26;20985;-65
2024/04/12 16:22:23;;;;;;;0.30;0.30;;;20.60;69.80;;;;;;5348973;26;20224;-66
2024/04/12 16:24:49;;;;;;;0.30;0.30;;;20.50;69.30;;;;;;5348831;26;20558;-64
2024/04/12 16:27:15;;;;;;;0.30;0.30;;;20.40;69.50;;;;;;5348914;26;20241;-66
2024/04/12 16:29:41;;;;;;;0.30;0.30;;;20.40;70.20;;;;;;5349001;26;20814;-62
2024/04/12 16:32:07;;;;;;;0.50;0.40;;;20.30;69.90;;;;;;5349006;26;20687;-64
2024/04/12 16:34:33;;;;;;;0.30;0.30;;;20.30;70.60;;;;;;5348666;26;20463;-60
2024/04/12 16:36:59;;;;;;;0.43;0.43;;;20.30;71.10;;;;;;5348670;26;20547;-66
2024/04/12 16:39:24;;;;;;;0.30;0.30;;;20.30;69.90;;;;;;5348857;26;20274;-60
2024/04/12 16:41:50;;;;;;;0.30;0.30;;;20.30;70.40;;;;;;5348688;26;20314;-63
2024/04/12 16:44:16;;;;;;;0.30;0.30;;;20.20;70.10;;;;;;5348795;26;20225;-59
2024/04/12 16:46:45;;;;;;;0.30;0.30;;;20.20;69.60;;;;;;5348661;26;20482;-65
2024/04/12 16:49:11;;;;;;;0.30;0.20;;;20.20;69.80;;;;;;5348555;26;20451;-66
2024/04/12 16:51:37;;;;;;;0.30;0.30;;;20.20;69.40;;;;;;5348501;26;20507;-65
2024/04/12 16:54:02;;;;;;;0.40;0.40;;;20.20;69.80;;;;;;5348442;26;20423;-61
2024/04/12 16:56:29;;;;;;;0.30;0.30;;;20.20;69.90;;;;;;5348232;26;20455;-60
2024/04/12 16:58:59;;;;;;;0.30;0.30;;;20.10;70.00;;;;;;5348461;26;20348;-63
2024/04/12 17:01:25;;;;;;;0.30;0.30;;;20.10;68.80;;;;;;5347389;26;20578;-61
2024/04/12 17:03:51;;;;;;;0.30;0.20;;;20.10;68.80;;;;;;5348480;26;20500;-64
2024/04/12 17:06:17;;;;;;;0.30;0.30;;;20.00;68.90;;;;;;5348117;26;20508;-60
2024/04/12 17:08:43;;;;;;;0.40;0.40;;;20.00;69.10;;;;;;5348037;26;20475;-67
2024/04/12 17:11:10;;;;;;;0.30;0.30;;;20.00;68.90;;;;;;5347416;26;20344;-61
2024/04/12 17:13:36;;;;;;;0.40;0.40;;;19.90;67.70;;;;;;5348497;26;20796;-59
2024/04/12 17:16:02;;;;;;;0.33;0.33;;;19.90;67.80;;;;;;5347882;26;20447;-60
2024/04/12 17:18:30;;;;;;;0.30;0.30;;;19.80;67.80;;;;;;5347918;26;20459;-65
2024/04/12 17:21:02;;;;;;;0.37;0.37;;;19.80;68.10;;;;;;5347994;26;20512;-59
2024/04/12 17:23:30;;;;;;;0.30;0.30;;;19.80;68.30;;;;;;5348249;26;20455;-63
2024/04/12 17:25:56;;;;;;;0.30;0.30;;;19.80;68.40;;;;;;5347739;26;20512;-59
2024/04/12 17:28:22;;;;;;;0.30;0.20;;;19.80;68.10;;;;;;5348199;26;20899;-63
2024/04/12 17:30:58;;;;;;;0.40;0.40;;;19.80;68.00;;;;;;5348213;26;20494;-60
2024/04/12 17:33:27;;;;;;;0.30;0.30;;;19.70;68.20;;;;;;5348199;26;20427;-63
2024/04/12 17:35:54;;;;;;;0.60;0.30;;;19.60;68.90;;;;;;5347824;26;20452;-61
2024/04/12 17:38:19;;;;;;;0.30;0.30;;;19.50;69.90;;;;;;5347973;26;20455;-65
2024/04/12 17:40:47;;;;;;;0.40;0.40;;;19.40;69.70;;;;;;5346324;26;20491;-62
2024/04/12 17:43:12;;;;;;;0.30;0.30;;;19.40;69.50;;;;;;5348005;26;20220;-65
2024/04/12 17:45:38;;;;;;;0.30;0.30;;;19.30;69.70;;;;;;5347674;26;20444;-62
2024/04/12 17:48:04;;;;;;;0.50;0.50;;;19.30;69.90;;;;;;5347772;26;20560;-61
2024/04/12 17:50:31;;;;;;;0.30;0.30;;;19.20;70.40;;;;;;5347732;26;20263;-64
2024/04/12 17:52:56;;;;;;;0.43;0.43;;;19.10;70.50;;;;;;5347837;26;20221;-62
2024/04/12 17:55:22;;;;;;;0.40;0.40;;;19.00;70.90;;;;;;5347594;26;20443;-62
2024/04/12 17:57:48;;;;;;;0.30;0.30;;;18.90;71.40;;;;;;5347677;26;20237;-59
2024/04/12 18:00:15;;;;;;;0.30;0.30;;;18.80;71.60;;;;;;5347847;26;20220;-64
2024/04/12 18:02:41;;;;;;;0.40;0.40;;;18.80;72.60;;;;;;5347651;26;20221;-60
2024/04/12 18:05:10;;;;;;;0.30;0.30;;;18.70;72.10;;;;;;5347374;26;20597;-63
2024/04/12 18:07:36;;;;;;;0.37;0.37;;;18.50;72.10;;;;;;5347573;26;20560;-60
2024/04/12 18:10:01;;;;;;;0.30;0.30;;;18.50;72.40;;;;;;5347489;26;21016;-64
2024/04/12 18:12:27;;;;;;;0.30;0.30;;;18.40;72.50;;;;;;5347790;26;20673;-63
2024/04/12 18:14:53;;;;;;;0.30;0.30;;;18.30;72.80;;;;;;5347257;26;20229;-62
2024/04/12 18:17:18;;;;;;;0.30;0.30;;;18.20;72.70;;;;;;5347055;26;20237;-61
2024/04/12 18:19:44;;;;;;;0.50;0.50;;;18.10;72.60;;;;;;5347285;26;20259;-61
2024/04/12 18:22:09;;;;;;;0.30;0.30;;;18.00;72.80;;;;;;5348002;26;20569;-64
2024/04/12 18:24:35;;;;;;;0.30;0.30;;;17.90;73.20;;;;;;5347196;26;20254;-64
2024/04/12 18:27:01;;;;;;;0.30;0.30;;;17.80;74.50;;;;;;5347531;26;20235;-66
2024/04/12 18:29:26;;;;;;;0.50;0.50;;;17.70;74.40;;;;;;5348638;26;20263;-58
2024/04/12 18:31:57;;;;;;;0.40;0.40;;;17.70;74.70;;;;;;5347049;26;20450;-62
2024/04/12 18:34:25;;;;;;;0.30;0.30;;;17.60;75.40;;;;;;5347410;26;20229;-63
2024/04/12 18:37:11;;;;;;;0.30;0.30;;;17.50;75.80;;;;;;5346375;26;20561;-66
2024/04/12 18:45:08;;;;;;;0.30;0.30;;;17.30;76.50;;;;;;5347891;26;20596;-65
2024/04/12 18:47:37;;;;;;;0.30;0.30;;;17.20;76.80;;;;;;5347445;26;20498;-62
2024/04/12 18:50:04;;;;;;;0.30;0.30;;;17.10;76.90;;;;;;5347132;26;20439;-62
2024/04/12 18:52:30;;;;;;;0.30;0.30;;;17.00;77.00;;;;;;5346868;26;20463;-60
2024/04/12 18:54:55;;;;;;;0.30;0.30;;;17.00;77.60;;;;;;5346517;26;20511;-66
2024/04/12 18:57:22;;;;;;;0.50;0.50;;;16.90;78.60;;;;;;5316591;26;20238;-64
2024/04/12 18:59:47;;;;;;;0.40;0.40;;;16.70;79.10;;;;;;5312192;27;20281;-61
2024/04/12 19:02:13;;;;;;;0.30;0.30;;;16.70;80.10;;;;;;5312057;26;20470;-62
2024/04/12 19:04:40;;;;;;;0.30;0.30;;;16.60;80.90;;;;;;5311570;27;20844;-59
2024/04/12 19:07:05;;;;;;;0.30;0.30;;;16.50;81.90;;;;;;5311694;26;20708;-65
2024/04/12 19:09:32;;;;;;;0.30;0.30;;;16.50;82.80;;;;;;5311313;26;20483;-60
2024/04/12 19:11:57;;;;;;;0.30;0.30;;;16.30;83.70;;;;;;5311931;26;20301;-61
2024/04/12 19:14:24;;;;;;;0.33;0.33;;;16.20;84.50;;;;;;5311824;27;20417;-58
2024/04/12 19:16:51;;;;;;;0.63;0.53;;;16.20;84.80;;;;;;5311757;26;20308;-64
2024/04/12 19:19:17;;;;;;;0.30;0.30;;;16.10;85.30;;;;;;5309316;26;20519;-59
2024/04/12 19:21:45;;;;;;;0.30;0.30;;;16.00;86.10;;;;;;5306973;26;20524;-59
2024/04/12 19:24:14;;;;;;;0.30;0.30;;;15.90;86.50;;;;;;5314947;26;20341;-62
2024/04/12 19:26:40;;;;;;;0.40;0.40;;;15.80;88.00;;;;;;5310216;26;20519;-64
2024/04/12 19:29:05;;;;;;;0.30;0.30;;;15.80;88.40;;;;;;5310944;27;20470;-60
2024/04/12 19:31:32;;;;;;;0.30;0.30;;;15.60;89.50;;;;;;5310943;26;20246;-63
2024/04/12 19:33:58;;;;;;;0.30;0.30;;;15.60;90.10;;;;;;5312209;26;20330;-60
2024/04/12 19:36:23;;;;;;;1.13;0.70;;;15.50;90.40;;;;;;5313746;27;20470;-61
2024/04/12 19:38:50;;;;;;;0.30;0.30;;;15.50;90.70;;;;;;5314483;27;20233;-64